createdAt,value
2019-04-03T00:01:34.413Z,25.47
2019-04-03T00:04:04.671Z,25.83
2019-04-03T00:06:35.039Z,26.20
2019-04-03T00:09:06.584Z,26.97
2019-04-03T00:11:35.806Z,26.27
2019-04-03T00:14:04.067Z,23.77
2019-04-03T00:16:32.368Z,24.53
2019-04-03T00:19:00.525Z,24.97
2019-04-03T00:21:28.834Z,24.23
2019-04-03T00:23:57.156Z,22.80
2019-04-03T00:26:25.298Z,23.87
2019-04-03T00:28:53.442Z,22.03
2019-04-03T00:31:23.288Z,22.53
2019-04-03T00:33:53.422Z,24.13
2019-04-03T00:36:23.317Z,21.90
2019-04-03T00:38:52.584Z,23.93
2019-04-03T00:41:24.132Z,20.77
2019-04-03T00:43:54.049Z,23.03
2019-04-03T00:46:22.806Z,22.07
2019-04-03T00:48:55.342Z,22.00
2019-04-03T00:51:22.688Z,21.63
2019-04-03T00:53:51.046Z,20.10
2019-04-03T00:56:19.338Z,20.90
2019-04-03T00:58:47.718Z,21.10
2019-04-03T01:01:15.976Z,21.73
2019-04-03T01:03:44.161Z,23.00
2019-04-03T01:06:13.953Z,22.77
2019-04-03T01:08:42.136Z,23.77
2019-04-03T01:11:10.275Z,22.97
2019-04-03T01:13:38.468Z,23.33
2019-04-03T01:16:06.619Z,22.63
2019-04-03T01:18:35.429Z,23.00
2019-04-03T01:21:06.260Z,23.10
2019-04-03T01:23:37.201Z,23.80
2019-04-03T01:26:04.304Z,23.17
2019-04-03T01:28:32.462Z,22.07
2019-04-03T01:31:00.616Z,21.93
2019-04-03T01:33:28.845Z,21.77
2019-04-03T01:35:56.993Z,21.53
2019-04-03T01:38:25.166Z,21.23
2019-04-03T01:40:53.317Z,21.80
2019-04-03T01:43:23.132Z,20.47
2019-04-03T01:45:51.664Z,19.93
2019-04-03T01:48:19.815Z,18.53
2019-04-03T01:50:47.988Z,18.17
2019-04-03T01:53:16.141Z,18.57
2019-04-03T01:55:44.571Z,17.13
2019-04-03T01:58:12.799Z,18.07
2019-04-03T02:00:41.641Z,17.20
2019-04-03T02:03:10.301Z,16.97
2019-04-03T02:05:39.402Z,16.93
2019-04-03T02:08:07.619Z,17.13
2019-04-03T02:10:36.064Z,17.13
2019-04-03T02:13:04.232Z,16.37
2019-04-03T02:15:32.406Z,17.07
2019-04-03T02:18:00.546Z,16.83
2019-04-03T02:20:28.735Z,15.80
2019-04-03T02:22:59.646Z,15.23
2019-04-03T02:25:27.771Z,16.23
2019-04-03T02:27:55.962Z,17.70
2019-04-03T02:30:24.111Z,16.13
2019-04-03T02:32:55.211Z,15.17
2019-04-03T02:35:22.510Z,15.67
2019-04-03T02:37:50.962Z,16.00
2019-04-03T02:40:19.342Z,15.47
2019-04-03T02:42:47.528Z,15.83
2019-04-03T02:45:15.675Z,15.27
2019-04-03T02:47:43.911Z,17.13
2019-04-03T02:50:15.647Z,14.73
2019-04-03T02:52:43.991Z,15.40
2019-04-03T02:55:12.415Z,15.33
2019-04-03T02:57:40.674Z,14.73
2019-04-03T03:00:10.103Z,15.50
2019-04-03T03:02:38.248Z,15.87
2019-04-03T03:05:06.433Z,15.17
2019-04-03T03:07:36.416Z,16.40
2019-04-03T03:10:05.989Z,15.83
2019-04-03T03:12:36.362Z,14.60
2019-04-03T03:15:06.074Z,15.33
2019-04-03T03:17:36.300Z,15.47
2019-04-03T03:20:07.684Z,14.77
2019-04-03T03:22:39.052Z,15.97
2019-04-03T03:25:08.671Z,15.33
2019-04-03T03:27:40.747Z,15.00
2019-04-03T03:30:30.353Z,16.23
2019-04-03T03:32:38.743Z,15.73
2019-04-03T03:35:14.485Z,14.90
2019-04-03T03:37:38.658Z,14.37
2019-04-03T03:40:08.091Z,14.43
2019-04-03T03:42:36.411Z,13.70
2019-04-03T03:45:05.786Z,15.23
2019-04-03T03:47:37.042Z,14.87
2019-04-03T03:50:07.206Z,15.77
2019-04-03T03:52:38.329Z,16.80
2019-04-03T03:55:08.478Z,15.60
2019-04-03T03:57:40.162Z,15.70
2019-04-03T04:00:09.324Z,15.87
2019-04-03T04:02:40.917Z,16.67
2019-04-03T04:05:10.695Z,15.70
2019-04-03T04:07:38.782Z,16.57
2019-04-03T04:10:07.396Z,16.00
2019-04-03T04:12:39.754Z,17.83
2019-04-03T04:15:08.780Z,15.63
2019-04-03T04:17:37.214Z,16.50
2019-04-03T04:20:06.320Z,17.63
2019-04-03T04:22:34.957Z,16.03
2019-04-03T04:25:05.289Z,17.50
2019-04-03T04:27:37.358Z,16.70
2019-04-03T04:30:05.200Z,15.57
2019-04-03T04:32:33.411Z,16.17
2019-04-03T04:35:01.554Z,17.23
2019-04-03T04:37:30.096Z,17.00
2019-04-03T04:39:59.732Z,16.97
2019-04-03T04:42:28.493Z,18.42
2019-04-03T04:44:56.816Z,16.67
2019-04-03T04:47:25.694Z,16.33
2019-04-03T04:49:54.342Z,17.07
2019-04-03T04:52:22.688Z,16.90
2019-04-03T04:54:51.274Z,17.30
2019-04-03T04:57:19.586Z,17.57
2019-04-03T04:59:47.795Z,18.00
2019-04-03T05:02:15.961Z,17.20
2019-04-03T05:04:44.443Z,17.87
2019-04-03T05:07:13.030Z,18.33
2019-04-03T05:09:42.272Z,17.83
2019-04-03T05:12:10.976Z,17.70
2019-04-03T05:14:41.176Z,16.30
2019-04-03T05:17:09.799Z,16.93
2019-04-03T05:19:38.031Z,15.83
2019-04-03T05:22:06.488Z,16.27
2019-04-03T05:24:34.625Z,16.93
2019-04-03T05:27:03.633Z,16.73
2019-04-03T05:29:34.207Z,16.70
2019-04-03T05:32:02.332Z,16.97
2019-04-03T05:34:30.533Z,17.40
2019-04-03T05:36:58.684Z,16.10
2019-04-03T05:39:26.866Z,17.47
2019-04-03T05:41:55.235Z,16.80
2019-04-03T05:44:24.104Z,17.90
2019-04-03T05:46:52.621Z,17.73
2019-04-03T05:49:20.765Z,17.43
2019-04-03T05:51:49.196Z,17.00
2019-04-03T05:54:17.525Z,17.73
2019-04-03T05:56:45.793Z,17.90
2019-04-03T05:59:14.055Z,18.27
2019-04-03T06:01:46.102Z,17.97
2019-04-03T06:04:12.731Z,18.67
2019-04-03T06:06:40.975Z,17.70
2019-04-03T06:09:09.327Z,17.00
2019-04-03T06:11:39.866Z,17.83
2019-04-03T06:14:08.768Z,17.50
2019-04-03T06:16:37.576Z,16.80
2019-04-03T06:19:07.189Z,17.57
2019-04-03T06:21:35.600Z,17.07
2019-04-03T06:24:04.043Z,18.07
2019-04-03T06:26:32.301Z,16.87
2019-04-03T06:29:00.728Z,17.87
2019-04-03T06:31:29.077Z,18.47
2019-04-03T06:33:57.291Z,17.27
2019-04-03T06:36:26.567Z,17.40
2019-04-03T06:38:56.063Z,16.83
2019-04-03T06:41:24.987Z,16.77
2019-04-03T06:43:54.494Z,16.03
2019-04-03T06:46:23.145Z,16.83
2019-04-03T06:48:51.532Z,15.93
2019-04-03T06:51:19.902Z,17.00
2019-04-03T06:53:48.466Z,16.03
2019-04-03T06:56:16.724Z,18.20
2019-04-03T06:58:45.184Z,16.57
2019-04-03T07:01:14.182Z,17.77
2019-04-03T07:03:42.445Z,16.97
2019-04-03T07:06:11.513Z,17.70
2019-04-03T07:08:41.173Z,17.97
2019-04-03T07:11:22.370Z,18.43
2019-04-03T07:13:40.508Z,18.90
2019-04-03T07:16:09.293Z,18.53
2019-04-03T07:18:37.640Z,18.87
2019-04-03T07:21:05.798Z,18.47
2019-04-03T07:23:34.366Z,19.63
2019-04-03T07:26:02.934Z,19.07
2019-04-03T07:28:32.701Z,20.37
2019-04-03T07:31:01.001Z,20.20
2019-04-03T07:33:29.468Z,21.07
2019-04-03T07:35:57.925Z,19.47
2019-04-03T07:38:26.232Z,19.70
2019-04-03T07:40:54.415Z,20.07
2019-04-03T07:43:22.661Z,19.63
2019-04-03T07:45:50.958Z,20.03
2019-04-03T07:48:19.120Z,19.23
2019-04-03T07:50:47.447Z,20.10
2019-04-03T07:53:15.653Z,20.67
2019-04-03T07:55:44.410Z,20.87
2019-04-03T07:58:13.059Z,19.90
2019-04-03T08:00:41.411Z,20.40
2019-04-03T08:03:09.695Z,21.27
2019-04-03T08:05:37.850Z,20.07
2019-04-03T08:08:06.005Z,19.13
2019-04-03T08:10:37.133Z,20.63
2019-04-03T08:13:06.487Z,20.30
2019-04-03T08:15:35.287Z,20.37
2019-04-03T08:18:03.437Z,19.43
2019-04-03T08:20:31.608Z,20.43
2019-04-03T08:22:59.840Z,18.73
2019-04-03T08:25:28.048Z,19.37
2019-04-03T08:27:56.667Z,19.97
2019-04-03T08:30:24.887Z,20.00
2019-04-03T08:32:53.136Z,19.17
2019-04-03T08:35:23.386Z,19.67
2019-04-03T08:37:51.370Z,20.03
2019-04-03T08:40:20.427Z,21.10
2019-04-03T08:42:49.937Z,18.97
2019-04-03T08:45:20.956Z,19.63
2019-04-03T08:47:48.234Z,19.07
2019-04-03T08:50:18.132Z,19.67
2019-04-03T08:52:46.445Z,19.20
2019-04-03T08:55:15.107Z,19.30
2019-04-03T08:57:45.960Z,18.80
2019-04-03T09:00:14.531Z,17.57
2019-04-03T09:02:43.828Z,17.63
2019-04-03T09:05:14.490Z,18.60
2019-04-03T09:07:43.024Z,18.30
2019-04-03T09:10:12.211Z,17.97
2019-04-03T09:12:40.500Z,17.17
2019-04-03T09:15:10.529Z,17.60
2019-04-03T09:17:39.105Z,16.73
2019-04-03T09:20:08.824Z,16.93
2019-04-03T09:22:37.141Z,18.03
2019-04-03T09:25:05.977Z,17.93
2019-04-03T09:27:34.131Z,17.77
2019-04-03T09:30:02.943Z,15.93
2019-04-03T09:32:31.213Z,18.30
2019-04-03T09:35:01.424Z,16.67
2019-04-03T09:37:29.736Z,17.37
2019-04-03T09:40:01.011Z,17.30
2019-04-03T09:42:32.966Z,17.10
2019-04-03T09:45:02.173Z,15.60
2019-04-03T09:47:33.074Z,15.90
2019-04-03T09:50:00.711Z,17.70
2019-04-03T09:52:39.530Z,17.23
2019-04-03T09:55:00.307Z,15.83
2019-04-03T09:57:31.348Z,17.07
2019-04-03T09:59:59.301Z,19.00
2019-04-03T10:02:27.676Z,18.47
2019-04-03T10:04:58.621Z,17.17
2019-04-03T10:07:26.573Z,18.77
2019-04-03T10:09:54.936Z,17.67
2019-04-03T10:12:23.447Z,19.10
2019-04-03T10:14:52.071Z,17.80
2019-04-03T10:17:20.971Z,17.37
2019-04-03T10:19:49.297Z,19.27
2019-04-03T10:22:17.651Z,17.90
2019-04-03T10:24:45.953Z,19.33
2019-04-03T10:27:14.118Z,18.77
2019-04-03T10:29:42.453Z,18.93
2019-04-03T10:32:10.768Z,19.63
2019-04-03T10:34:38.960Z,21.03
2019-04-03T10:37:07.211Z,19.57
2019-04-03T10:39:35.585Z,20.23
2019-04-03T10:42:03.891Z,20.37
2019-04-03T10:44:32.207Z,19.60
2019-04-03T10:47:00.436Z,19.40
2019-04-03T10:49:30.028Z,20.27
2019-04-03T10:51:58.669Z,20.17
2019-04-03T10:54:27.287Z,18.50
2019-04-03T10:56:55.903Z,19.10
2019-04-03T10:59:24.207Z,18.90
2019-04-03T11:01:52.385Z,18.20
2019-04-03T11:04:20.691Z,18.90
2019-04-03T11:06:48.869Z,17.53
2019-04-03T11:09:17.177Z,15.47
2019-04-03T11:11:45.553Z,15.00
2019-04-03T11:14:14.208Z,14.43
2019-04-03T11:16:45.993Z,13.63
2019-04-03T11:19:12.896Z,14.37
2019-04-03T11:21:43.240Z,12.40
2019-04-03T11:24:11.313Z,13.07
2019-04-03T11:26:39.728Z,11.77
2019-04-03T11:29:09.921Z,13.37
2019-04-03T11:31:41.480Z,12.90
2019-04-03T11:34:08.293Z,11.43
2019-04-03T11:36:36.494Z,12.80
2019-04-03T11:39:13.546Z,12.80
2019-04-03T11:41:38.511Z,11.63
2019-04-03T11:44:06.678Z,11.23
2019-04-03T11:46:35.450Z,10.73
2019-04-03T11:49:04.522Z,10.70
2019-04-03T11:51:34.264Z,10.17
2019-04-03T11:54:02.721Z,10.03
2019-04-03T11:56:31.342Z,10.90
2019-04-03T11:58:59.904Z,10.77
2019-04-03T12:01:28.814Z,10.00
2019-04-03T12:03:57.217Z,9.83
2019-04-03T12:06:25.475Z,9.63
2019-04-03T12:08:53.736Z,9.67
2019-04-03T12:11:22.687Z,9.57
2019-04-03T12:13:51.410Z,8.87
2019-04-03T12:16:20.040Z,9.83
2019-04-03T12:18:48.456Z,10.83
2019-04-03T12:21:18.868Z,11.03
2019-04-03T12:23:46.968Z,10.10
2019-04-03T12:26:15.476Z,9.63
2019-04-03T12:28:43.853Z,10.37
2019-04-03T12:31:12.802Z,9.20
2019-04-03T12:33:52.744Z,8.47
2019-04-03T12:36:13.413Z,9.27
2019-04-03T12:38:41.287Z,8.67
2019-04-03T12:41:10.656Z,8.97
2019-04-03T12:43:39.590Z,9.40
2019-04-03T12:46:11.897Z,9.47
2019-04-03T12:48:40.500Z,9.13
2019-04-03T12:51:09.043Z,9.30
2019-04-03T12:53:37.838Z,9.60
2019-04-03T12:56:06.548Z,9.33
2019-04-03T12:58:36.395Z,10.13
2019-04-03T13:01:05.211Z,13.00
2019-04-03T13:03:36.716Z,14.13
2019-04-03T13:06:04.988Z,15.93
2019-04-03T13:08:33.536Z,15.83
2019-04-03T13:11:02.241Z,11.80
2019-04-03T13:13:30.460Z,12.03
2019-04-03T13:15:58.888Z,12.50
2019-04-03T13:18:27.220Z,11.07
2019-04-03T13:20:55.399Z,11.37
2019-04-03T13:23:23.558Z,10.97
2019-04-03T13:25:53.193Z,12.10
2019-04-03T13:28:21.840Z,11.40
2019-04-03T13:30:49.999Z,13.00
2019-04-03T13:33:18.140Z,12.20
2019-04-03T13:35:48.357Z,12.70
2019-04-03T13:38:17.483Z,13.30
2019-04-03T13:40:46.061Z,12.57
2019-04-03T13:43:15.462Z,12.73
2019-04-03T13:45:43.879Z,14.03
2019-04-03T13:48:13.443Z,13.73
2019-04-03T13:50:44.979Z,14.00
2019-04-03T13:53:12.740Z,13.57
2019-04-03T13:55:41.239Z,12.90
2019-04-03T13:58:10.347Z,14.17
2019-04-03T14:00:38.800Z,13.13
2019-04-03T14:03:07.035Z,13.67
2019-04-03T14:05:35.216Z,13.03
2019-04-03T14:08:06.368Z,14.37
2019-04-03T14:10:33.979Z,13.17
2019-04-03T14:13:02.237Z,12.70
2019-04-03T14:15:32.469Z,12.13
2019-04-03T14:18:00.652Z,12.93
2019-04-03T14:20:28.863Z,13.93
2019-04-03T14:22:57.038Z,13.00
2019-04-03T14:25:28.099Z,12.73
2019-04-03T14:27:55.660Z,13.07
2019-04-03T14:30:24.615Z,12.43
2019-04-03T14:32:54.672Z,13.13
2019-04-03T14:35:45.143Z,12.03
2019-04-03T14:37:53.376Z,12.17
2019-04-03T14:40:21.705Z,13.23
2019-04-03T14:42:49.902Z,12.73
2019-04-03T14:45:25.733Z,12.57
2019-04-03T14:47:54.914Z,12.03
2019-04-03T14:50:24.129Z,12.20
2019-04-03T14:52:52.511Z,13.07
2019-04-03T14:55:22.751Z,23.03
2019-04-03T14:57:53.764Z,24.17
2019-04-03T15:00:28.553Z,19.90
2019-04-03T15:02:51.178Z,18.33
2019-04-03T15:05:19.715Z,14.80
2019-04-03T15:07:50.613Z,14.20
2019-04-03T15:10:18.678Z,18.00
2019-04-03T15:12:47.235Z,21.37
2019-04-03T15:15:15.797Z,22.27
2019-04-03T15:17:44.382Z,19.60
2019-04-03T15:20:16.910Z,18.90
2019-04-03T15:22:44.133Z,16.70
2019-04-03T15:25:12.911Z,19.20
2019-04-03T15:27:42.640Z,20.57
2019-04-03T15:30:12.265Z,19.47
2019-04-03T15:32:41.166Z,17.97
2019-04-03T15:35:10.477Z,17.33
2019-04-03T15:37:41.929Z,18.83
2019-04-03T15:40:10.159Z,19.17
2019-04-03T15:42:40.567Z,21.33
2019-04-03T15:45:11.681Z,20.60
2019-04-03T15:47:45.013Z,20.53
2019-04-03T15:50:12.055Z,21.00
2019-04-03T15:52:43.140Z,20.20
2019-04-03T15:55:11.763Z,19.27
2019-04-03T15:57:40.991Z,18.50
2019-04-03T16:00:12.460Z,18.23
2019-04-03T16:02:44.495Z,17.13
2019-04-03T16:05:11.980Z,16.73
2019-04-03T16:07:41.614Z,16.50
2019-04-03T16:10:10.932Z,15.83
2019-04-03T16:12:42.932Z,15.70
2019-04-03T16:15:09.836Z,15.83
2019-04-03T16:17:39.130Z,15.40
2019-04-03T16:20:08.632Z,15.73
2019-04-03T16:22:38.455Z,14.23
2019-04-03T16:25:08.173Z,13.97
2019-04-03T16:27:36.491Z,14.80
2019-04-03T16:30:07.192Z,14.40
2019-04-03T16:32:37.681Z,16.40
2019-04-03T16:35:07.670Z,13.80
2019-04-03T16:37:36.362Z,15.63
2019-04-03T16:40:06.192Z,15.00
2019-04-03T16:42:35.014Z,15.13
2019-04-03T16:45:08.156Z,15.90
2019-04-03T16:47:34.572Z,15.23
2019-04-03T16:50:05.723Z,14.70
2019-04-03T16:52:36.247Z,16.70
2019-04-03T16:55:04.481Z,15.60
2019-04-03T16:57:32.660Z,13.80
2019-04-03T17:00:00.847Z,15.83
2019-04-03T17:02:29.957Z,15.57
2019-04-03T17:04:58.488Z,16.33
2019-04-03T17:07:26.757Z,16.30
2019-04-03T17:09:54.940Z,16.53
2019-04-03T17:12:23.278Z,15.93
2019-04-03T17:14:52.955Z,16.20
2019-04-03T17:17:22.651Z,16.07
2019-04-03T17:19:51.782Z,15.90
2019-04-03T17:22:20.492Z,15.57
2019-04-03T17:24:51.868Z,16.13
2019-04-03T17:27:19.086Z,16.13
2019-04-03T17:29:48.107Z,16.23
2019-04-03T17:32:19.575Z,15.20
2019-04-03T17:34:47.778Z,15.80
2019-04-03T17:37:19.006Z,15.77
2019-04-03T17:39:46.196Z,15.43
2019-04-03T17:42:15.266Z,17.00
2019-04-03T17:44:44.757Z,15.73
2019-04-03T17:47:13.502Z,15.87
2019-04-03T17:49:41.798Z,15.53
2019-04-03T17:52:10.165Z,16.93
2019-04-03T17:54:39.123Z,16.67
2019-04-03T17:57:07.529Z,15.47
2019-04-03T17:59:35.668Z,16.40
2019-04-03T18:02:04.095Z,17.37
2019-04-03T18:04:32.456Z,15.13
2019-04-03T18:07:00.670Z,15.97
2019-04-03T18:09:28.927Z,15.93
2019-04-03T18:11:58.031Z,15.43
2019-04-03T18:14:27.109Z,17.73
2019-04-03T18:16:55.350Z,16.40
2019-04-03T18:19:23.546Z,16.00
2019-04-03T18:22:51.006Z,15.93
2019-04-03T18:25:20.165Z,15.47
2019-04-03T18:27:48.398Z,16.70
2019-04-03T18:30:17.875Z,15.90
2019-04-03T18:32:46.689Z,15.13
2019-04-03T18:35:15.218Z,15.90
2019-04-03T18:37:43.435Z,16.20
2019-04-03T18:40:14.242Z,17.20
2019-04-03T18:42:41.932Z,16.10
2019-04-03T18:45:24.638Z,16.50
2019-04-03T18:47:46.520Z,16.80
2019-04-03T18:50:14.763Z,16.27
2019-04-03T18:52:43.429Z,16.80
2019-04-03T18:55:14.628Z,16.80
2019-04-03T18:57:42.348Z,17.07
2019-04-03T19:00:11.037Z,18.67
2019-04-03T19:02:39.293Z,18.40
2019-04-03T19:05:09.919Z,18.13
2019-04-03T19:07:38.238Z,19.23
2019-04-03T19:10:07.823Z,32.97
2019-04-03T19:12:36.318Z,29.77
2019-04-03T19:15:07.070Z,28.37
2019-04-03T19:17:35.384Z,39.67
2019-04-03T19:20:10.808Z,24.93
2019-04-03T19:22:35.079Z,51.77
2019-04-03T19:25:03.651Z,23.50
2019-04-03T19:27:33.013Z,21.00
2019-04-03T19:30:01.738Z,21.37
2019-04-03T19:32:30.344Z,21.60
2019-04-03T19:34:58.593Z,18.87
2019-04-03T19:37:26.898Z,20.70
2019-04-03T19:39:55.102Z,20.27
2019-04-03T19:42:24.177Z,21.67
2019-04-03T19:44:52.321Z,18.50
2019-04-03T19:47:20.497Z,21.03
2019-04-03T19:49:48.693Z,20.67
2019-04-03T19:52:16.925Z,19.07
2019-04-03T19:54:45.056Z,19.23
2019-04-03T19:57:13.351Z,20.47
2019-04-03T19:59:41.511Z,22.33
2019-04-03T20:02:10.251Z,22.27
2019-04-03T20:04:38.691Z,21.47
2019-04-03T20:07:07.393Z,20.57
2019-04-03T20:09:35.535Z,21.50
2019-04-03T20:12:06.816Z,21.07
2019-04-03T20:14:33.902Z,19.13
2019-04-03T20:17:02.167Z,19.00
2019-04-03T20:19:30.410Z,17.40
2019-04-03T20:21:58.618Z,20.43
2019-04-03T20:24:26.887Z,20.33
2019-04-03T20:26:55.080Z,20.10
2019-04-03T20:29:23.294Z,21.90
2019-04-03T20:31:51.473Z,22.47
2019-04-03T20:34:19.624Z,21.10
2019-04-03T20:36:50.948Z,19.73
2019-04-03T20:39:18.381Z,19.30
2019-04-03T20:41:46.601Z,19.33
2019-04-03T20:44:16.703Z,19.27
2019-04-03T20:46:44.860Z,18.73
2019-04-03T20:49:13.145Z,17.97
2019-04-03T20:51:51.430Z,18.93
2019-04-03T20:54:21.261Z,18.53
2019-04-03T20:56:57.817Z,18.63
2019-04-03T20:59:19.972Z,18.17
2019-04-03T21:01:48.221Z,17.90
2019-04-03T21:04:16.492Z,18.47
2019-04-03T21:06:44.964Z,17.57
2019-04-03T21:09:13.217Z,17.03
2019-04-03T21:11:41.342Z,16.47
2019-04-03T21:14:11.285Z,16.73
2019-04-03T21:16:41.135Z,18.53
2019-04-03T21:19:09.395Z,19.37
2019-04-03T21:21:37.540Z,18.93
2019-04-03T21:24:07.532Z,19.70
2019-04-03T21:26:38.273Z,19.37
2019-04-03T21:29:07.091Z,19.33
2019-04-03T21:31:35.396Z,23.33
2019-04-03T21:34:03.659Z,22.97
2019-04-03T21:36:31.787Z,23.73
2019-04-03T21:38:59.948Z,26.67
2019-04-03T21:41:28.185Z,24.70
2019-04-03T21:43:59.729Z,26.23
2019-04-03T21:46:26.635Z,26.50
2019-04-03T21:48:57.044Z,28.30
2019-04-03T21:51:25.200Z,26.73
2019-04-03T21:53:55.773Z,27.67
2019-04-03T21:56:23.497Z,24.73
2019-04-03T21:58:51.800Z,22.97
2019-04-03T22:01:25.209Z,24.83
2019-04-03T22:03:53.658Z,25.50
2019-04-03T22:06:21.869Z,19.37
2019-04-03T22:08:51.591Z,16.97
2019-04-03T22:11:20.030Z,18.70
2019-04-03T22:13:49.752Z,17.67
2019-04-03T22:16:19.475Z,15.77
2019-04-03T22:18:47.890Z,15.37
2019-04-03T22:21:16.117Z,13.73
2019-04-03T22:23:44.761Z,13.13
2019-04-03T22:26:12.874Z,12.53
2019-04-03T22:28:41.321Z,13.83
2019-04-03T22:31:09.448Z,12.93
2019-04-03T22:33:37.659Z,14.13
2019-04-03T22:36:05.789Z,15.23
2019-04-03T22:38:36.971Z,13.90
2019-04-03T22:41:04.162Z,13.57
2019-04-03T22:43:32.330Z,14.20
2019-04-03T22:46:00.706Z,13.07
2019-04-03T22:48:29.239Z,11.87
2019-04-03T22:50:57.609Z,12.30
2019-04-03T22:53:25.766Z,12.50
2019-04-03T22:55:53.938Z,12.80
2019-04-03T22:58:22.202Z,12.53
2019-04-03T23:00:50.562Z,11.07
2019-04-03T23:03:18.675Z,10.60
2019-04-03T23:05:47.950Z,11.47
2019-04-03T23:08:17.016Z,10.83
2019-04-03T23:10:45.274Z,11.93
2019-04-03T23:13:13.425Z,12.23
2019-04-03T23:15:41.624Z,11.97
2019-04-03T23:18:09.770Z,11.13
2019-04-03T23:20:38.072Z,11.00
2019-04-03T23:23:06.376Z,12.27
2019-04-03T23:25:34.678Z,10.80
2019-04-03T23:28:03.577Z,12.63
2019-04-03T23:30:31.903Z,11.83
2019-04-03T23:33:00.069Z,12.97
2019-04-03T23:35:28.407Z,14.27
2019-04-03T23:37:56.658Z,14.13
2019-04-03T23:40:25.232Z,13.53
2019-04-03T23:42:53.400Z,13.67
2019-04-03T23:45:22.987Z,13.47
2019-04-03T23:47:51.219Z,14.03
2019-04-03T23:50:20.005Z,13.87
2019-04-03T23:52:49.527Z,14.17
2019-04-03T23:55:17.737Z,14.33
2019-04-03T23:57:46.906Z,12.93
